Terminal Aerodrome Forecast
Issued by NWS

Home | Current Version | Previous Version | Text Only | Print | Product List | Glossary On
Versions: 1 2 3 4 5 6 7 8 9 10 11 12 13 14 15 16 17
000
FTUS43 KICT 242322
TAFCNU
TAF
KCNU 242322Z 2500/2524 17019G27KT P6SM SCT025 OVC050
      TEMPO 2500/2503 BKN025
     FM250600 22013KT P6SM VCTS SCT030CB OVC100
      TEMPO 2506/2510 3SM TSRA OVC030CB
     FM251200 29012KT P6SM SCT040 BKN080
     FM252200 02009KT P6SM SCT040 BKN100=

USA.gov is the U.S. government's official web portal to all federal, state and local government web resources and services.